Time;durP1;ratioP1;P1;durP2;ratioP2;P2;SDS_P1;SDS_P2;PMS_P1;PMS_P2;Temp;Humidity;BMP_temperature;BMP_pressure;BME280_temperature;BME280_humidity;BME280_pressure;Samples;Min_cycle;Max_cycle;Signal;HPM_P1;HPM_P2
2021/12/31 00:00:36;;;;;;;;;;;;;;;;;;5067712;28;19924;-77
2021/12/31 00:03:03;;;;;;;;;;;;;;;;;;5068377;28;19947;-77
2021/12/31 00:05:30;;;;;;;;;;;;;;;;;;5067778;28;20305;-77
2021/12/31 00:07:57;;;;;;;;;;;;;;;;;;5072970;28;19928;-77
2021/12/31 00:10:24;;;;;;;;;;;;;;;;;;5066845;28;19930;-76
2021/12/31 00:12:51;;;;;;;;;;;;;;;;;;5066500;28;19940;-76
2021/12/31 00:15:18;;;;;;;;;;;;;;;;;;5073394;28;20350;-76
2021/12/31 00:17:46;;;;;;;;;;;;;;;;;;5072804;28;20033;-76
2021/12/31 00:20:16;;;;;;;;;;;;;;;;;;5071894;28;19978;-75
2021/12/31 00:25:27;;;;;;;;;;;;;;;;;;5072215;28;19920;-76
2021/12/31 00:27:54;;;;;;;;;;;;;;;;;;5072606;28;19924;-77
2021/12/31 00:30:21;;;;;;;;;;;;;;;;;;5072263;28;20285;-76
2021/12/31 00:32:48;;;;;;;;;;;;;;;;;;5072713;28;20396;-76
2021/12/31 00:35:15;;;;;;;;;;;;;;;;;;5067435;28;19972;-76
2021/12/31 00:37:42;;;;;;;;;;;;;;;;;;5067758;28;19925;-76
2021/12/31 00:40:09;;;;;;;;;;;;;;;;;;5072387;28;20500;-77
2021/12/31 00:42:36;;;;;;;;;;;;;;;;;;5072217;28;20412;-76
2021/12/31 00:45:03;;;;;;;;;;;;;;;;;;5067058;28;20019;-76
2021/12/31 00:47:30;;;;;;;;;;;;;;;;;;5067062;28;19924;-76
2021/12/31 00:49:56;;;;;;;;;;;;;;;;;;5066581;28;19924;-76
2021/12/31 00:52:23;;;;;;;;;;;;;;;;;;5067493;28;19925;-77
2021/12/31 00:54:50;;;;;;;;;;;;;;;;;;5072296;28;19925;-76
2021/12/31 00:57:17;;;;;;;;;;;;;;;;;;5067040;28;20011;-78
2021/12/31 00:59:44;;;;;;;;;;;;;;;;;;5064451;28;19924;-77
2021/12/31 01:02:12;;;;;;;;;;;;;;;;;;5069003;28;19970;-75
2021/12/31 01:04:39;;;;;;;;;;;;;;;;;;5067016;28;20329;-76
2021/12/31 01:07:06;;;;;;;;;;;;;;;;;;5066852;28;19925;-75
2021/12/31 01:09:33;;;;;;;;;;;;;;;;;;5054889;28;19925;-77
2021/12/31 01:12:01;;;;;;;;;;;;;;;;;;5066490;28;19938;-76
2021/12/31 01:14:32;;;;;;;;;;;;;;;;;;5067018;28;20301;-76
2021/12/31 01:17:02;;;;;;;;;;;;;;;;;;5072120;28;19924;-76
2021/12/31 01:19:48;;;;;;;;;;;;;;;;;;5063819;28;19958;-76
2021/12/31 01:22:15;;;;;;;;;;;;;;;;;;5056057;28;19975;-76
2021/12/31 01:24:42;;;;;;;;;;;;;;;;;;5067778;28;19932;-77
2021/12/31 01:27:09;;;;;;;;;;;;;;;;;;5065548;28;19931;-76
2021/12/31 01:29:36;;;;;;;;;;;;;;;;;;5063475;28;19931;-77
2021/12/31 01:32:03;;;;;;;;;;;;;;;;;;5060119;28;20007;-77
2021/12/31 01:34:30;;;;;;;;;;;;;;;;;;5070864;28;20019;-76
2021/12/31 01:36:59;;;;;;;;;;;;;;;;;;5068742;28;20007;-77
2021/12/31 01:39:26;;;;;;;;;;;;;;;;;;5065947;28;19983;-75
2021/12/31 01:41:53;;;;;;;;;;;;;;;;;;5068070;28;20008;-76
2021/12/31 01:44:21;;;;;;;;;;;;;;;;;;5066212;28;19935;-76
2021/12/31 01:46:48;;;;;;;;;;;;;;;;;;5066094;28;19924;-76
2021/12/31 01:49:20;;;;;;;;;;;;;;;;;;5066504;28;19960;-77
2021/12/31 01:51:47;;;;;;;;;;;;;;;;;;5055776;28;19966;-76
2021/12/31 01:54:14;;;;;;;;;;;;;;;;;;5066390;28;20015;-76
2021/12/31 01:56:41;;;;;;;;;;;;;;;;;;5064751;28;19931;-76
2021/12/31 01:59:08;;;;;;;;;;;;;;;;;;5062391;28;20015;-76
2021/12/31 02:01:35;;;;;;;;;;;;;;;;;;5065590;28;19925;-77
2021/12/31 02:04:02;;;;;;;;;;;;;;;;;;5071949;28;19924;-76
2021/12/31 02:06:29;;;;;;;;;;;;;;;;;;5070587;28;20318;-75
2021/12/31 02:08:56;;;;;;;;;;;;;;;;;;5066698;28;19932;-76
2021/12/31 02:11:23;;;;;;;;;;;;;;;;;;5065646;28;19931;-77
2021/12/31 02:13:50;;;;;;;;;;;;;;;;;;5071392;28;19932;-75
2021/12/31 02:16:17;;;;;;;;;;;;;;;;;;5065009;28;19924;-76
2021/12/31 02:18:44;;;;;;;;;;;;;;;;;;5061808;28;19931;-76
2021/12/31 02:21:11;;;;;;;;;;;;;;;;;;5066062;28;19931;-76
2021/12/31 02:23:43;;;;;;;;;;;;;;;;;;5075632;28;20398;-76
2021/12/31 02:26:10;;;;;;;;;;;;;;;;;;5071588;28;20060;-76
2021/12/31 02:28:38;;;;;;;;;;;;;;;;;;5063661;28;19924;-78
2021/12/31 02:31:04;;;;;;;;;;;;;;;;;;5066501;28;19932;-75
2021/12/31 02:33:31;;;;;;;;;;;;;;;;;;5074306;28;19924;-77
2021/12/31 02:35:58;;;;;;;;;;;;;;;;;;5068373;28;19956;-75
2021/12/31 02:38:25;;;;;;;;;;;;;;;;;;5067696;28;19925;-75
2021/12/31 02:40:52;;;;;;;;;;;;;;;;;;5066744;28;20015;-77
2021/12/31 02:43:19;;;;;;;;;;;;;;;;;;5073075;28;19931;-76
2021/12/31 02:45:47;;;;;;;;;;;;;;;;;;5068656;28;19924;-76
2021/12/31 02:48:14;;;;;;;;;;;;;;;;;;5071146;28;19925;-75
2021/12/31 02:50:41;;;;;;;;;;;;;;;;;;5070282;28;20298;-76
2021/12/31 02:53:08;;;;;;;;;;;;;;;;;;5071183;28;19924;-77
2021/12/31 02:55:35;;;;;;;;;;;;;;;;;;5070938;28;19926;-76
2021/12/31 02:58:03;;;;;;;;;;;;;;;;;;5067442;28;20004;-76
2021/12/31 03:00:30;;;;;;;;;;;;;;;;;;5069684;28;20287;-77
2021/12/31 03:02:57;;;;;;;;;;;;;;;;;;5070941;28;20010;-76
2021/12/31 03:05:24;;;;;;;;;;;;;;;;;;5064173;28;20305;-76
2021/12/31 03:07:51;;;;;;;;;;;;;;;;;;5067697;28;19979;-76
2021/12/31 03:10:18;;;;;;;;;;;;;;;;;;5068462;28;20346;-75
2021/12/31 03:12:45;;;;;;;;;;;;;;;;;;5078486;28;19925;-74
2021/12/31 03:15:12;;;;;;;;;;;;;;;;;;5070276;28;19936;-77
2021/12/31 03:17:40;;;;;;;;;;;;;;;;;;5071016;28;19931;-76
2021/12/31 03:20:11;;;;;;;;;;;;;;;;;;5069519;28;20308;-76
2021/12/31 03:22:38;;;;;;;;;;;;;;;;;;5075890;28;19928;-78
2021/12/31 03:25:05;;;;;;;;;;;;;;;;;;5069290;28;19924;-75
2021/12/31 03:27:32;;;;;;;;;;;;;;;;;;5066124;28;20290;-76
2021/12/31 03:29:58;;;;;;;;;;;;;;;;;;5065843;28;20008;-75
2021/12/31 03:32:25;;;;;;;;;;;;;;;;;;5062743;28;20275;-76
2021/12/31 03:34:52;;;;;;;;;;;;;;;;;;5068472;28;19924;-75
2021/12/31 03:37:19;;;;;;;;;;;;;;;;;;5072722;28;19930;-76
2021/12/31 03:39:46;;;;;;;;;;;;;;;;;;5074152;28;19934;-76
2021/12/31 03:42:16;;;;;;;;;;;;;;;;;;5068046;28;19924;-76
2021/12/31 03:44:43;;;;;;;;;;;;;;;;;;5073711;28;19932;-75
2021/12/31 03:47:09;;;;;;;;;;;;;;;;;;5073380;28;19925;-76
2021/12/31 03:49:36;;;;;;;;;;;;;;;;;;5073644;28;19933;-76
2021/12/31 03:52:03;;;;;;;;;;;;;;;;;;5072845;28;20389;-75
2021/12/31 03:54:30;;;;;;;;;;;;;;;;;;5072910;28;20298;-76
2021/12/31 03:56:57;;;;;;;;;;;;;;;;;;5068500;28;19928;-76
2021/12/31 03:59:24;;;;;;;;;;;;;;;;;;5073467;28;20008;-74
2021/12/31 04:01:51;;;;;;;;;;;;;;;;;;5073099;28;20291;-77
2021/12/31 04:04:18;;;;;;;;;;;;;;;;;;5073264;28;20024;-76
2021/12/31 04:06:45;;;;;;;;;;;;;;;;;;5073178;28;19931;-76
2021/12/31 04:09:12;;;;;;;;;;;;;;;;;;5073191;28;19974;-75
2021/12/31 04:11:39;;;;;;;;;;;;;;;;;;5072878;28;19928;-76
2021/12/31 04:14:06;;;;;;;;;;;;;;;;;;5071144;28;20370;-76
2021/12/31 04:16:33;;;;;;;;;;;;;;;;;;5069605;28;19925;-77
2021/12/31 04:19:00;;;;;;;;;;;;;;;;;;5066508;28;19931;-77
2021/12/31 04:21:27;;;;;;;;;;;;;;;;;;5062887;28;19925;-76
2021/12/31 04:24:05;;;;;;;;;;;;;;;;;;5067649;28;19928;-77
2021/12/31 04:26:32;;;;;;;;;;;;;;;;;;5064079;28;19947;-76
2021/12/31 04:28:59;;;;;;;;;;;;;;;;;;5067131;28;19924;-76
2021/12/31 04:31:26;;;;;;;;;;;;;;;;;;5072803;28;19946;-76
2021/12/31 04:33:54;;;;;;;;;;;;;;;;;;5067071;28;20301;-76
2021/12/31 04:36:24;;;;;;;;;;;;;;;;;;5067978;28;19924;-75
2021/12/31 04:38:51;;;;;;;;;;;;;;;;;;5067217;28;19924;-76
2021/12/31 04:41:18;;;;;;;;;;;;;;;;;;5067191;28;20385;-76
2021/12/31 04:43:44;;;;;;;;;;;;;;;;;;5066794;28;20317;-76
2021/12/31 04:46:11;;;;;;;;;;;;;;;;;;5064725;28;20414;-76
2021/12/31 04:48:38;;;;;;;;;;;;;;;;;;5069815;28;20140;-78
2021/12/31 04:51:05;;;;;;;;;;;;;;;;;;5069014;28;19931;-75
2021/12/31 04:53:33;;;;;;;;;;;;;;;;;;5068847;28;20213;-74
2021/12/31 04:56:00;;;;;;;;;;;;;;;;;;5064828;28;19924;-76
2021/12/31 04:58:27;;;;;;;;;;;;;;;;;;5066462;28;20018;-76
2021/12/31 05:00:54;;;;;;;;;;;;;;;;;;5072327;28;19947;-76
2021/12/31 05:03:23;;;;;;;;;;;;;;;;;;5065884;28;20284;-73
2021/12/31 05:05:50;;;;;;;;;;;;;;;;;;5062779;28;19967;-75
2021/12/31 05:08:17;;;;;;;;;;;;;;;;;;5065638;28;19928;-76
2021/12/31 05:10:44;;;;;;;;;;;;;;;;;;5066691;28;19931;-76
2021/12/31 05:13:15;;;;;;;;;;;;;;;;;;5069851;28;20031;-77
2021/12/31 05:15:45;;;;;;;;;;;;;;;;;;5062883;28;19933;-76
2021/12/31 05:18:12;;;;;;;;;;;;;;;;;;5066502;28;19932;-76
2021/12/31 05:20:39;;;;;;;;;;;;;;;;;;5066514;28;19924;-75
2021/12/31 05:23:06;;;;;;;;;;;;;;;;;;5066178;28;19925;-74
2021/12/31 05:25:33;;;;;;;;;;;;;;;;;;5067048;28;20008;-74
2021/12/31 05:28:00;;;;;;;;;;;;;;;;;;5066041;28;20026;-74
2021/12/31 05:30:27;;;;;;;;;;;;;;;;;;5071405;28;19931;-77
2021/12/31 05:32:54;;;;;;;;;;;;;;;;;;5065789;28;19930;-76
2021/12/31 05:35:21;;;;;;;;;;;;;;;;;;5060228;28;19931;-74
2021/12/31 05:37:50;;;;;;;;;;;;;;;;;;5065841;28;19971;-75
2021/12/31 05:40:17;;;;;;;;;;;;;;;;;;5065692;28;20408;-76
2021/12/31 05:42:44;;;;;;;;;;;;;;;;;;5065993;28;20389;-75
2021/12/31 05:45:11;;;;;;;;;;;;;;;;;;5066859;28;19925;-76
2021/12/31 05:47:38;;;;;;;;;;;;;;;;;;5065665;28;20018;-76
2021/12/31 05:50:07;;;;;;;;;;;;;;;;;;5065795;28;19925;-75
2021/12/31 05:52:34;;;;;;;;;;;;;;;;;;5065738;28;19924;-75
2021/12/31 05:55:01;;;;;;;;;;;;;;;;;;5062411;28;19924;-75
2021/12/31 05:57:28;;;;;;;;;;;;;;;;;;5065296;28;19928;-74
2021/12/31 05:59:55;;;;;;;;;;;;;;;;;;5071355;28;19928;-75
2021/12/31 06:02:22;;;;;;;;;;;;;;;;;;5065312;28;19925;-74
2021/12/31 06:04:49;;;;;;;;;;;;;;;;;;5062747;28;20023;-77
2021/12/31 06:07:16;;;;;;;;;;;;;;;;;;5064792;28;19950;-76
2021/12/31 06:09:43;;;;;;;;;;;;;;;;;;5066268;28;19928;-76
2021/12/31 06:12:10;;;;;;;;;;;;;;;;;;5065543;28;20209;-76
2021/12/31 06:14:37;;;;;;;;;;;;;;;;;;5065433;28;19979;-76
2021/12/31 06:17:07;;;;;;;;;;;;;;;;;;5070192;28;19947;-77
2021/12/31 06:19:34;;;;;;;;;;;;;;;;;;5077162;28;19959;-76
2021/12/31 06:22:01;;;;;;;;;;;;;;;;;;5083367;28;20011;-76
2021/12/31 06:24:28;;;;;;;;;;;;;;;;;;5081031;28;19931;-77
2021/12/31 06:26:55;;;;;;;;;;;;;;;;;;5083340;28;20289;-76
2021/12/31 06:29:22;;;;;;;;;;;;;;;;;;5084632;28;19924;-77
2021/12/31 06:31:49;;;;;;;;;;;;;;;;;;5084333;28;19937;-76
2021/12/31 06:34:15;;;;;;;;;;;;;;;;;;5083614;28;19925;-76
2021/12/31 06:36:42;;;;;;;;;;;;;;;;;;5078563;28;19935;-76
2021/12/31 06:39:09;;;;;;;;;;;;;;;;;;5076887;28;20019;-78
2021/12/31 06:41:36;;;;;;;;;;;;;;;;;;5076173;28;20063;-76
2021/12/31 06:44:03;;;;;;;;;;;;;;;;;;5070713;28;19950;-76
2021/12/31 06:46:30;;;;;;;;;;;;;;;;;;5068103;28;20007;-76
2021/12/31 06:48:57;;;;;;;;;;;;;;;;;;5069382;28;19925;-76
2021/12/31 06:51:24;;;;;;;;;;;;;;;;;;5074174;28;19994;-75
2021/12/31 06:53:51;;;;;;;;;;;;;;;;;;5066484;28;19925;-76
2021/12/31 06:56:18;;;;;;;;;;;;;;;;;;5068346;28;19925;-76
2021/12/31 06:58:45;;;;;;;;;;;;;;;;;;5073363;28;19947;-73
2021/12/31 07:01:12;;;;;;;;;;;;;;;;;;5074089;28;19928;-76
2021/12/31 07:03:39;;;;;;;;;;;;;;;;;;5070204;28;19928;-75
2021/12/31 07:06:06;;;;;;;;;;;;;;;;;;5070285;28;20024;-75
2021/12/31 07:08:33;;;;;;;;;;;;;;;;;;5073840;28;20340;-76
2021/12/31 07:10:59;;;;;;;;;;;;;;;;;;5077272;28;19925;-76
2021/12/31 07:13:26;;;;;;;;;;;;;;;;;;5070321;28;19925;-76
2021/12/31 07:15:54;;;;;;;;;;;;;;;;;;5067729;28;19933;-76
2021/12/31 07:18:21;;;;;;;;;;;;;;;;;;5075670;28;19931;-75
2021/12/31 07:20:48;;;;;;;;;;;;;;;;;;5071055;28;19931;-76
2021/12/31 07:23:15;;;;;;;;;;;;;;;;;;5068173;28;20003;-75
2021/12/31 07:25:42;;;;;;;;;;;;;;;;;;5072742;28;19924;-76
2021/12/31 07:28:09;;;;;;;;;;;;;;;;;;5075542;28;19952;-75
2021/12/31 07:30:36;;;;;;;;;;;;;;;;;;5070591;28;19928;-74
2021/12/31 07:33:03;;;;;;;;;;;;;;;;;;5069543;28;19928;-76
2021/12/31 07:35:31;;;;;;;;;;;;;;;;;;5068878;28;19925;-76
2021/12/31 07:37:58;;;;;;;;;;;;;;;;;;5068983;28;20063;-77
2021/12/31 07:40:28;;;;;;;;;;;;;;;;;;5068715;28;19925;-77
2021/12/31 07:42:55;;;;;;;;;;;;;;;;;;5066042;28;20084;-75
2021/12/31 07:45:22;;;;;;;;;;;;;;;;;;5071131;28;19924;-76
2021/12/31 07:47:49;;;;;;;;;;;;;;;;;;5068429;28;19924;-76
2021/12/31 07:50:16;;;;;;;;;;;;;;;;;;5068068;28;19929;-76
2021/12/31 07:52:43;;;;;;;;;;;;;;;;;;5071176;28;19929;-76
2021/12/31 07:55:10;;;;;;;;;;;;;;;;;;5064996;28;19925;-75
2021/12/31 07:57:37;;;;;;;;;;;;;;;;;;5068247;28;20405;-76
2021/12/31 08:00:04;;;;;;;;;;;;;;;;;;5068054;28;20382;-78
2021/12/31 08:02:31;;;;;;;;;;;;;;;;;;5066512;28;20417;-78
2021/12/31 08:04:58;;;;;;;;;;;;;;;;;;5064575;28;19925;-77
2021/12/31 08:07:24;;;;;;;;;;;;;;;;;;5068435;28;19925;-76
2021/12/31 08:09:51;;;;;;;;;;;;;;;;;;5073862;28;19931;-77
2021/12/31 08:12:18;;;;;;;;;;;;;;;;;;5067119;28;19925;-78
2021/12/31 08:14:45;;;;;;;;;;;;;;;;;;5072777;28;19932;-76
2021/12/31 08:17:12;;;;;;;;;;;;;;;;;;5069568;28;19972;-77
2021/12/31 08:19:39;;;;;;;;;;;;;;;;;;5071379;28;19924;-77
2021/12/31 08:22:06;;;;;;;;;;;;;;;;;;5070083;28;20015;-77
2021/12/31 08:24:33;;;;;;;;;;;;;;;;;;5064521;28;20152;-76
2021/12/31 08:27:00;;;;;;;;;;;;;;;;;;5068208;28;19935;-76
2021/12/31 08:29:27;;;;;;;;;;;;;;;;;;5067776;28;19932;-77
2021/12/31 08:31:54;;;;;;;;;;;;;;;;;;5067115;28;19946;-76
2021/12/31 08:34:21;;;;;;;;;;;;;;;;;;5064078;28;19925;-73
2021/12/31 08:36:48;;;;;;;;;;;;;;;;;;5064275;28;20029;-76
2021/12/31 08:39:15;;;;;;;;;;;;;;;;;;5060759;28;19929;-76
2021/12/31 08:41:42;;;;;;;;;;;;;;;;;;5066579;28;20007;-78
2021/12/31 08:44:09;;;;;;;;;;;;;;;;;;5064382;28;19925;-74
2021/12/31 08:46:36;;;;;;;;;;;;;;;;;;5066927;28;20305;-78
2021/12/31 08:49:03;;;;;;;;;;;;;;;;;;5067208;28;20027;-77
2021/12/31 08:51:30;;;;;;;;;;;;;;;;;;5066591;28;19931;-74
2021/12/31 08:53:57;;;;;;;;;;;;;;;;;;5063329;28;20027;-78
2021/12/31 08:56:24;;;;;;;;;;;;;;;;;;5066207;28;20309;-76
2021/12/31 08:58:51;;;;;;;;;;;;;;;;;;5067563;28;20027;-75
2021/12/31 09:01:18;;;;;;;;;;;;;;;;;;5071554;28;19931;-75
2021/12/31 09:03:44;;;;;;;;;;;;;;;;;;5063135;28;20412;-76
2021/12/31 09:06:12;;;;;;;;;;;;;;;;;;5065026;28;19925;-76
2021/12/31 09:08:39;;;;;;;;;;;;;;;;;;5066757;28;19924;-76
2021/12/31 09:11:06;;;;;;;;;;;;;;;;;;5066610;28;19925;-78
2021/12/31 09:13:33;;;;;;;;;;;;;;;;;;5069260;28;19935;-77
2021/12/31 09:16:00;;;;;;;;;;;;;;;;;;5072101;28;19924;-76
2021/12/31 09:18:27;;;;;;;;;;;;;;;;;;5067210;28;20362;-77
2021/12/31 09:20:54;;;;;;;;;;;;;;;;;;5066823;28;19950;-76
2021/12/31 09:23:21;;;;;;;;;;;;;;;;;;5062798;28;19939;-76
2021/12/31 09:25:48;;;;;;;;;;;;;;;;;;5064743;28;20355;-76
2021/12/31 09:28:16;;;;;;;;;;;;;;;;;;5066301;28;20385;-77
2021/12/31 09:30:42;;;;;;;;;;;;;;;;;;5066197;28;20628;-76
2021/12/31 09:33:09;;;;;;;;;;;;;;;;;;5062869;28;20453;-76
2021/12/31 09:35:36;;;;;;;;;;;;;;;;;;5064526;28;19938;-76
2021/12/31 09:38:08;;;;;;;;;;;;;;;;;;5066419;28;19929;-75
2021/12/31 09:40:35;;;;;;;;;;;;;;;;;;5066215;28;20011;-76
2021/12/31 09:43:02;;;;;;;;;;;;;;;;;;5062923;28;19947;-76
2021/12/31 09:45:29;;;;;;;;;;;;;;;;;;5064321;28;20357;-75
2021/12/31 09:47:59;;;;;;;;;;;;;;;;;;5066082;28;19947;-76
2021/12/31 09:50:26;;;;;;;;;;;;;;;;;;5071289;28;19979;-78
2021/12/31 09:52:54;;;;;;;;;;;;;;;;;;5061975;28;19935;-77
2021/12/31 09:55:21;;;;;;;;;;;;;;;;;;5064932;28;19925;-76
2021/12/31 09:57:48;;;;;;;;;;;;;;;;;;5066517;28;19924;-77
2021/12/31 10:00:15;;;;;;;;;;;;;;;;;;5065996;28;19925;-77
2021/12/31 10:02:42;;;;;;;;;;;;;;;;;;5062940;28;20360;-77
2021/12/31 10:05:09;;;;;;;;;;;;;;;;;;5065397;28;19925;-76
2021/12/31 10:07:36;;;;;;;;;;;;;;;;;;5065982;28;19935;-74
2021/12/31 10:10:03;;;;;;;;;;;;;;;;;;5066150;28;20012;-74
2021/12/31 10:12:30;;;;;;;;;;;;;;;;;;5062293;28;20131;-76
2021/12/31 10:14:57;;;;;;;;;;;;;;;;;;5066127;28;19925;-77
2021/12/31 10:17:24;;;;;;;;;;;;;;;;;;5066055;28;20212;-77
2021/12/31 10:19:51;;;;;;;;;;;;;;;;;;5065595;28;19924;-76
2021/12/31 10:22:18;;;;;;;;;;;;;;;;;;5062518;28;19929;-77
2021/12/31 10:24:47;;;;;;;;;;;;;;;;;;5063571;28;19925;-77
2021/12/31 10:27:14;;;;;;;;;;;;;;;;;;5066167;28;19924;-76
2021/12/31 10:29:41;;;;;;;;;;;;;;;;;;5065542;28;19924;-76
2021/12/31 10:32:08;;;;;;;;;;;;;;;;;;5062848;28;20027;-74
2021/12/31 10:34:36;;;;;;;;;;;;;;;;;;5062155;28;19935;-75
2021/12/31 10:37:03;;;;;;;;;;;;;;;;;;5063112;28;19924;-76
2021/12/31 10:39:31;;;;;;;;;;;;;;;;;;5066206;28;20287;-76
2021/12/31 10:41:58;;;;;;;;;;;;;;;;;;5062660;28;19936;-76
2021/12/31 10:44:24;;;;;;;;;;;;;;;;;;5069764;28;19925;-76
2021/12/31 10:46:51;;;;;;;;;;;;;;;;;;5066614;28;20301;-77
2021/12/31 10:49:18;;;;;;;;;;;;;;;;;;5066397;28;20330;-76
2021/12/31 10:51:47;;;;;;;;;;;;;;;;;;5063163;28;19928;-76
2021/12/31 10:54:14;;;;;;;;;;;;;;;;;;5064141;28;19932;-76
2021/12/31 10:56:41;;;;;;;;;;;;;;;;;;5065975;28;19951;-77
2021/12/31 10:59:08;;;;;;;;;;;;;;;;;;5066675;28;19925;-76
2021/12/31 11:01:35;;;;;;;;;;;;;;;;;;5063127;28;19948;-76
2021/12/31 11:04:02;;;;;;;;;;;;;;;;;;5063411;28;19999;-77
2021/12/31 11:06:29;;;;;;;;;;;;;;;;;;5074834;28;20010;-77
2021/12/31 11:08:59;;;;;;;;;;;;;;;;;;5069458;28;20003;-75
2021/12/31 11:11:26;;;;;;;;;;;;;;;;;;5066490;28;19928;-76
2021/12/31 11:13:53;;;;;;;;;;;;;;;;;;5074830;28;19932;-77
2021/12/31 11:16:20;;;;;;;;;;;;;;;;;;5069538;28;19947;-77
2021/12/31 11:18:47;;;;;;;;;;;;;;;;;;5074557;28;19931;-75
2021/12/31 11:21:14;;;;;;;;;;;;;;;;;;5066164;28;19951;-77
2021/12/31 11:23:42;;;;;;;;;;;;;;;;;;5049169;22;19948;-68
2021/12/31 11:26:11;;;;;;;;;;;;;;;;;;5028680;28;20409;-68
2021/12/31 11:28:38;;;;;;;;;;;;;;;;;;5038645;28;19924;-68
2021/12/31 11:31:05;;;;;;;;;;;;;;;;;;5027363;28;19925;-67
2021/12/31 11:33:32;;;;;;;;;;;;;;;;;;5026447;28;19929;-67
2021/12/31 11:35:59;;;;;;;;;;;;;;;;;;5028757;28;19931;-67
2021/12/31 11:38:26;;;;;;;;;;;;;;;;;;5029116;28;19925;-67
2021/12/31 11:40:53;;;;;;;;;;;;;;;;;;5033514;28;19925;-68
2021/12/31 11:43:20;;;;;;;;;;;;;;;;;;5028706;28;20291;-67
2021/12/31 11:45:47;;;;;;;;;;;;;;;;;;5028858;28;20023;-66
2021/12/31 11:48:14;;;;;;;;;;;;;;;;;;5029296;28;19932;-67
2021/12/31 11:50:41;;;;;;;;;;;;;;;;;;5016921;28;19932;-67
2021/12/31 11:53:09;;;;;;;;;;;;;;;;;;5035909;28;19926;-68
2021/12/31 11:55:36;;;;;;;;;;;;;;;;;;5033222;28;20387;-68
2021/12/31 11:58:03;;;;;;;;;;;;;;;;;;5034036;28;20291;-68
2021/12/31 12:00:30;;;;;;;;;;;;;;;;;;5026028;28;20280;-68
2021/12/31 12:02:57;;;;;;;;;;;;;;;;;;5024979;28;19925;-68
2021/12/31 12:05:26;;;;;;;;;;;;;;;;;;5032365;28;19924;-68
2021/12/31 12:07:54;;;;;;;;;;;;;;;;;;5039384;28;19925;-68
2021/12/31 12:10:21;;;;;;;;;;;;;;;;;;5025988;28;19972;-68
2021/12/31 12:12:50;;;;;;;;;;;;;;;;;;5028934;28;19932;-68
2021/12/31 12:15:17;;;;;;;;;;;;;;;;;;5037089;28;19946;-68
2021/12/31 12:17:44;;;;;;;;;;;;;;;;;;5028142;28;20016;-69
2021/12/31 12:20:12;;;;;;;;;;;;;;;;;;5025893;28;19940;-68
2021/12/31 12:22:39;;;;;;;;;;;;;;;;;;5024927;28;20399;-68
2021/12/31 12:25:06;;;;;;;;;;;;;;;;;;5028379;28;19925;-68
2021/12/31 12:27:33;;;;;;;;;;;;;;;;;;5028018;28;20375;-68
2021/12/31 12:30:00;;;;;;;;;;;;;;;;;;5036790;28;19925;-68
2021/12/31 12:32:33;;;;;;;;;;;;;;;;;;5024473;28;20276;-68
2021/12/31 12:35:00;;;;;;;;;;;;;;;;;;5037385;28;20263;-68
2021/12/31 12:37:27;;;;;;;;;;;;;;;;;;5037024;28;19932;-69
2021/12/31 12:39:54;;;;;;;;;;;;;;;;;;5029298;28;20373;-68
2021/12/31 12:42:21;;;;;;;;;;;;;;;;;;5027388;28;19933;-68
2021/12/31 12:44:48;;;;;;;;;;;;;;;;;;5027607;28;20387;-68
2021/12/31 12:47:15;;;;;;;;;;;;;;;;;;5027742;28;19925;-68
2021/12/31 12:49:41;;;;;;;;;;;;;;;;;;5025695;28;19926;-68
2021/12/31 12:52:08;;;;;;;;;;;;;;;;;;5024229;28;19926;-68
2021/12/31 12:54:35;;;;;;;;;;;;;;;;;;5027601;28;19925;-68
2021/12/31 12:57:03;;;;;;;;;;;;;;;;;;5027427;28;19929;-68
2021/12/31 12:59:30;;;;;;;;;;;;;;;;;;5025358;28;19925;-68
2021/12/31 13:01:57;;;;;;;;;;;;;;;;;;5023808;28;20410;-68
2021/12/31 13:04:24;;;;;;;;;;;;;;;;;;5036420;28;19925;-68
2021/12/31 13:06:50;;;;;;;;;;;;;;;;;;5022560;28;19925;-68
2021/12/31 13:09:18;;;;;;;;;;;;;;;;;;5025846;28;20394;-69
2021/12/31 13:11:45;;;;;;;;;;;;;;;;;;5024620;28;20310;-68
2021/12/31 13:14:12;;;;;;;;;;;;;;;;;;5026882;28;19929;-68
2021/12/31 13:16:39;;;;;;;;;;;;;;;;;;5027058;28;19925;-69
2021/12/31 13:19:09;;;;;;;;;;;;;;;;;;5031243;28;19948;-69
2021/12/31 13:21:36;;;;;;;;;;;;;;;;;;5022763;28;19925;-68
2021/12/31 13:24:03;;;;;;;;;;;;;;;;;;5031810;28;19929;-68
2021/12/31 13:26:29;;;;;;;;;;;;;;;;;;5026794;28;19925;-69
2021/12/31 13:28:56;;;;;;;;;;;;;;;;;;5035674;28;19936;-68
2021/12/31 13:31:23;;;;;;;;;;;;;;;;;;5027861;28;19925;-68
2021/12/31 13:33:50;;;;;;;;;;;;;;;;;;5019810;28;19924;-69
2021/12/31 13:36:17;;;;;;;;;;;;;;;;;;5033251;28;19971;-67
2021/12/31 13:38:44;;;;;;;;;;;;;;;;;;5036273;28;20159;-70
2021/12/31 13:41:11;;;;;;;;;;;;;;;;;;5022438;28;19925;-68
2021/12/31 13:43:40;;;;;;;;;;;;;;;;;;5026094;28;19924;-69
2021/12/31 13:46:07;;;;;;;;;;;;;;;;;;5034375;28;20303;-68
2021/12/31 13:48:33;;;;;;;;;;;;;;;;;;5033198;28;19932;-69
2021/12/31 13:51:00;;;;;;;;;;;;;;;;;;5022484;28;20280;-68
2021/12/31 13:53:27;;;;;;;;;;;;;;;;;;5026365;28;19925;-68
2021/12/31 13:55:56;;;;;;;;;;;;;;;;;;5030937;28;19952;-69
2021/12/31 13:58:23;;;;;;;;;;;;;;;;;;5025276;28;19929;-68
2021/12/31 14:00:50;;;;;;;;;;;;;;;;;;5032785;28;19925;-68
2021/12/31 14:03:17;;;;;;;;;;;;;;;;;;5036322;28;19925;-69
2021/12/31 14:05:44;;;;;;;;;;;;;;;;;;5026132;28;19932;-67
2021/12/31 14:08:20;;;;;;;;;;;;;;;;;;5025583;28;19929;-67
2021/12/31 14:10:47;;;;;;;;;;;;;;;;;;5022895;28;20024;-69
2021/12/31 14:13:14;;;;;;;;;;;;;;;;;;5027166;28;19925;-68
2021/12/31 14:15:42;;;;;;;;;;;;;;;;;;5026277;28;20383;-68
2021/12/31 14:18:09;;;;;;;;;;;;;;;;;;5034912;28;19924;-69
2021/12/31 14:20:36;;;;;;;;;;;;;;;;;;5022828;28;19925;-68
2021/12/31 14:23:03;;;;;;;;;;;;;;;;;;5029808;28;19930;-68
2021/12/31 14:25:30;;;;;;;;;;;;;;;;;;5032360;28;19925;-67
2021/12/31 14:27:56;;;;;;;;;;;;;;;;;;5025184;28;20135;-68
2021/12/31 14:30:23;;;;;;;;;;;;;;;;;;5022073;28;19926;-68
2021/12/31 14:32:50;;;;;;;;;;;;;;;;;;5025906;28;19925;-68
2021/12/31 14:35:22;;;;;;;;;;;;;;;;;;5026186;28;19925;-68
2021/12/31 14:37:49;;;;;;;;;;;;;;;;;;5024665;28;20330;-67
2021/12/31 14:40:19;;;;;;;;;;;;;;;;;;5025455;28;19925;-68
2021/12/31 14:42:46;;;;;;;;;;;;;;;;;;5038938;28;19925;-68
2021/12/31 14:45:13;;;;;;;;;;;;;;;;;;5043522;28;19929;-68
2021/12/31 14:47:40;;;;;;;;;;;;;;;;;;5039956;28;20011;-69
2021/12/31 14:50:07;;;;;;;;;;;;;;;;;;5026111;28;20204;-69
2021/12/31 14:52:34;;;;;;;;;;;;;;;;;;5029367;28;19936;-69
2021/12/31 14:55:01;;;;;;;;;;;;;;;;;;5029536;28;19925;-69
2021/12/31 14:57:28;;;;;;;;;;;;;;;;;;5027763;28;19925;-68
2021/12/31 14:59:55;;;;;;;;;;;;;;;;;;5036356;28;19932;-68
2021/12/31 15:02:22;;;;;;;;;;;;;;;;;;5029112;28;20188;-67
2021/12/31 15:04:49;;;;;;;;;;;;;;;;;;5029695;28;20283;-68
2021/12/31 15:07:16;;;;;;;;;;;;;;;;;;5029452;28;19979;-67
2021/12/31 15:09:43;;;;;;;;;;;;;;;;;;5029763;28;20028;-68
2021/12/31 15:12:10;;;;;;;;;;;;;;;;;;5030584;28;20307;-68
2021/12/31 15:14:37;;;;;;;;;;;;;;;;;;5028947;28;19932;-68
2021/12/31 15:17:04;;;;;;;;;;;;;;;;;;5028139;28;19925;-67
2021/12/31 15:19:30;;;;;;;;;;;;;;;;;;5025285;28;19925;-68
2021/12/31 15:21:57;;;;;;;;;;;;;;;;;;5042636;28;19925;-68
2021/12/31 15:24:24;;;;;;;;;;;;;;;;;;5035870;28;20051;-67
2021/12/31 15:26:51;;;;;;;;;;;;;;;;;;5028501;28;19932;-68
2021/12/31 15:29:18;;;;;;;;;;;;;;;;;;5025237;28;19926;-68
2021/12/31 15:31:48;;;;;;;;;;;;;;;;;;5038389;28;20298;-68
2021/12/31 15:34:15;;;;;;;;;;;;;;;;;;5028792;28;19925;-67
2021/12/31 15:36:42;;;;;;;;;;;;;;;;;;5033603;28;19925;-69
2021/12/31 15:39:08;;;;;;;;;;;;;;;;;;5029806;28;19925;-68
2021/12/31 15:41:35;;;;;;;;;;;;;;;;;;5031121;28;19924;-69
2021/12/31 15:44:02;;;;;;;;;;;;;;;;;;5053249;28;19925;-69
2021/12/31 15:46:29;;;;;;;;;;;;;;;;;;5053019;28;19944;-69
2021/12/31 15:48:56;;;;;;;;;;;;;;;;;;5053519;28;20306;-69
2021/12/31 15:51:25;;;;;;;;;;;;;;;;;;5052178;28;19924;-69
2021/12/31 15:53:52;;;;;;;;;;;;;;;;;;5052728;28;19978;-69
2021/12/31 15:56:19;;;;;;;;;;;;;;;;;;5041841;28;20299;-69
2021/12/31 15:58:48;;;;;;;;;;;;;;;;;;5042158;28;19955;-68
2021/12/31 16:01:15;;;;;;;;;;;;;;;;;;5052863;28;19929;-69
2021/12/31 16:03:42;;;;;;;;;;;;;;;;;;5052519;28;20382;-68
2021/12/31 16:06:09;;;;;;;;;;;;;;;;;;5052455;28;19927;-68
2021/12/31 16:08:36;;;;;;;;;;;;;;;;;;5052725;28;19931;-68
2021/12/31 16:11:03;;;;;;;;;;;;;;;;;;5052234;28;19924;-68
2021/12/31 16:13:30;;;;;;;;;;;;;;;;;;5048761;28;20390;-67
2021/12/31 16:15:57;;;;;;;;;;;;;;;;;;5031360;28;19932;-68
2021/12/31 16:18:24;;;;;;;;;;;;;;;;;;5024337;28;19937;-67
2021/12/31 16:20:51;;;;;;;;;;;;;;;;;;5026275;28;19932;-68
2021/12/31 16:23:18;;;;;;;;;;;;;;;;;;5034257;28;20382;-68
2021/12/31 16:25:45;;;;;;;;;;;;;;;;;;5031088;28;19925;-68
2021/12/31 16:28:12;;;;;;;;;;;;;;;;;;5024500;28;19931;-68
2021/12/31 16:30:39;;;;;;;;;;;;;;;;;;5026182;28;20008;-67
2021/12/31 16:33:06;;;;;;;;;;;;;;;;;;5027620;28;19941;-68
2021/12/31 16:35:33;;;;;;;;;;;;;;;;;;5027829;28;19925;-69
2021/12/31 16:38:00;;;;;;;;;;;;;;;;;;5034880;28;19926;-68
2021/12/31 16:40:27;;;;;;;;;;;;;;;;;;5036233;28;19925;-69
2021/12/31 16:42:54;;;;;;;;;;;;;;;;;;5027475;28;20350;-68
2021/12/31 16:45:21;;;;;;;;;;;;;;;;;;5027449;28;19932;-68
2021/12/31 16:47:48;;;;;;;;;;;;;;;;;;5024578;28;19937;-69